createdAt,value
2017-09-22T00:01:08.171Z,16.90
2017-09-22T00:03:36.481Z,17.00
2017-09-22T00:06:04.007Z,17.00
2017-09-22T00:08:32.335Z,17.00
2017-09-22T00:10:59.889Z,17.00
2017-09-22T00:13:27.458Z,17.00
2017-09-22T00:15:54.971Z,17.00
2017-09-22T00:18:22.569Z,16.90
2017-09-22T00:20:50.131Z,16.90
2017-09-22T00:23:17.659Z,16.80
2017-09-22T00:25:45.198Z,16.70
2017-09-22T00:28:13.506Z,16.70
2017-09-22T00:30:41.826Z,16.70
2017-09-22T00:33:09.342Z,16.70
2017-09-22T00:35:36.853Z,16.70
2017-09-22T00:38:04.370Z,16.70
2017-09-22T00:40:31.914Z,16.70
2017-09-22T00:42:59.418Z,16.60
2017-09-22T00:45:26.939Z,16.60
2017-09-22T00:47:54.454Z,16.50
2017-09-22T00:50:21.993Z,16.40
2017-09-22T00:52:49.529Z,16.40
2017-09-22T00:55:17.125Z,16.40
2017-09-22T00:57:44.640Z,16.40
2017-09-22T01:00:12.207Z,16.40
2017-09-22T01:02:39.741Z,16.50
2017-09-22T01:05:08.154Z,16.40
2017-09-22T01:07:35.688Z,16.40
2017-09-22T01:10:03.272Z,16.30
2017-09-22T01:12:30.800Z,16.30
2017-09-22T01:14:59.120Z,16.20
2017-09-22T01:17:26.672Z,16.20
2017-09-22T01:19:54.210Z,16.20
2017-09-22T01:22:21.757Z,16.30
2017-09-22T01:24:50.029Z,16.20
2017-09-22T01:27:18.303Z,16.20
2017-09-22T01:29:46.622Z,16.10
2017-09-22T01:32:14.134Z,16.10
2017-09-22T01:34:41.645Z,16.10
2017-09-22T01:37:09.185Z,16.10
2017-09-22T01:39:36.714Z,16.10
2017-09-22T01:42:04.984Z,16.10
2017-09-22T01:44:32.510Z,16.00
2017-09-22T01:47:00.054Z,16.10
2017-09-22T01:49:27.561Z,16.00
2017-09-22T01:51:55.109Z,16.00
2017-09-22T01:54:22.654Z,15.90
2017-09-22T01:56:50.200Z,15.90
2017-09-22T01:59:17.726Z,15.90
2017-09-22T02:01:46.062Z,15.80
2017-09-22T02:04:13.655Z,15.70
2017-09-22T02:06:41.947Z,15.70
2017-09-22T02:09:09.470Z,15.70
2017-09-22T02:11:37.014Z,15.80
2017-09-22T02:14:04.653Z,15.80
2017-09-22T02:16:32.205Z,15.80
2017-09-22T02:18:59.709Z,15.80
2017-09-22T02:21:27.241Z,15.80
2017-09-22T02:23:54.768Z,15.60
2017-09-22T02:26:22.289Z,15.50
2017-09-22T02:28:49.796Z,15.50
2017-09-22T02:31:17.362Z,15.40
2017-09-22T02:33:44.905Z,15.50
2017-09-22T02:36:12.439Z,15.50
2017-09-22T02:38:40.710Z,15.40
2017-09-22T02:41:09.040Z,15.40
2017-09-22T02:43:36.586Z,15.40
2017-09-22T02:46:04.118Z,15.30
2017-09-22T02:48:32.395Z,15.20
2017-09-22T02:51:00.687Z,15.30
2017-09-22T02:53:28.968Z,15.20
2017-09-22T02:55:56.497Z,15.20
2017-09-22T02:58:24.015Z,15.20
2017-09-22T03:00:51.617Z,15.20
2017-09-22T03:03:19.138Z,15.30
2017-09-22T03:05:46.673Z,15.30
2017-09-22T03:08:14.167Z,15.20
2017-09-22T03:10:41.749Z,15.30
2017-09-22T03:13:09.279Z,15.20
2017-09-22T03:15:36.858Z,15.20
2017-09-22T03:18:04.397Z,15.10
2017-09-22T03:20:31.930Z,15.20
2017-09-22T03:22:59.437Z,15.20
2017-09-22T03:25:26.993Z,15.20
2017-09-22T03:27:54.573Z,15.20
2017-09-22T03:30:22.115Z,15.20
2017-09-22T03:32:49.686Z,15.10
2017-09-22T03:35:17.195Z,15.10
2017-09-22T03:37:44.738Z,15.10
2017-09-22T03:40:13.040Z,14.90
2017-09-22T03:42:40.574Z,14.90
2017-09-22T03:45:08.850Z,14.90
2017-09-22T03:47:37.164Z,14.90
2017-09-22T03:50:04.678Z,14.90
2017-09-22T03:52:32.979Z,14.90
2017-09-22T03:55:00.510Z,14.90
2017-09-22T03:57:28.806Z,14.90
2017-09-22T03:59:56.346Z,14.90
2017-09-22T04:02:23.935Z,14.80
2017-09-22T04:04:51.457Z,14.80
2017-09-22T04:07:18.986Z,14.80
2017-09-22T04:09:47.266Z,14.70
2017-09-22T04:12:14.796Z,14.70
2017-09-22T04:14:42.385Z,14.90
2017-09-22T04:17:09.913Z,14.80
2017-09-22T04:19:37.442Z,14.80
2017-09-22T04:22:05.790Z,14.70
2017-09-22T04:24:33.319Z,14.60
2017-09-22T04:27:00.853Z,14.60
2017-09-22T04:29:28.370Z,14.60
2017-09-22T04:31:55.939Z,14.50
2017-09-22T04:34:23.445Z,14.60
2017-09-22T04:36:50.990Z,14.60
2017-09-22T04:39:19.282Z,14.60
2017-09-22T04:41:46.827Z,14.60
2017-09-22T04:44:15.111Z,14.60
2017-09-22T04:46:42.671Z,14.60
2017-09-22T04:49:10.226Z,14.60
2017-09-22T04:51:38.543Z,14.50
2017-09-22T04:54:06.098Z,14.50
2017-09-22T04:56:33.709Z,14.50
2017-09-22T04:59:02.013Z,14.50
2017-09-22T05:01:29.530Z,14.50
2017-09-22T05:03:57.046Z,14.40
2017-09-22T05:06:29.621Z,14.50
2017-09-22T05:08:57.137Z,14.40
2017-09-22T05:11:24.693Z,14.40
2017-09-22T05:13:52.971Z,14.50
2017-09-22T05:16:21.333Z,14.40
2017-09-22T05:18:48.862Z,14.40
2017-09-22T05:21:16.374Z,14.40
2017-09-22T05:23:44.710Z,14.50
2017-09-22T05:26:12.249Z,14.40
2017-09-22T05:28:41.361Z,14.40
2017-09-22T05:31:08.877Z,14.40
2017-09-22T05:33:36.471Z,14.50
2017-09-22T05:36:04.053Z,14.40
2017-09-22T05:38:31.596Z,14.40
2017-09-22T05:40:59.130Z,14.50
2017-09-22T05:43:27.440Z,14.50
2017-09-22T05:45:54.989Z,14.50
2017-09-22T05:48:22.530Z,14.50
2017-09-22T05:50:50.814Z,14.80
2017-09-22T05:53:19.131Z,14.80
2017-09-22T05:55:46.640Z,14.80
2017-09-22T05:58:14.155Z,14.90
2017-09-22T06:00:41.665Z,15.00
2017-09-22T06:03:09.233Z,15.00
2017-09-22T06:05:36.761Z,15.10
2017-09-22T06:08:05.060Z,15.30
2017-09-22T06:10:32.594Z,15.30
2017-09-22T06:13:00.907Z,15.50
2017-09-22T06:15:28.440Z,15.50
2017-09-22T06:17:56.751Z,15.80
2017-09-22T06:20:24.249Z,15.80
2017-09-22T06:22:51.774Z,15.80
2017-09-22T06:25:19.288Z,15.90
2017-09-22T06:27:47.581Z,16.00
2017-09-22T06:30:15.110Z,16.00
2017-09-22T06:32:42.652Z,16.20
2017-09-22T06:35:10.186Z,16.50
2017-09-22T06:37:37.746Z,16.60
2017-09-22T06:40:05.254Z,16.70
2017-09-22T06:42:32.813Z,16.60
2017-09-22T06:45:00.338Z,16.60
2017-09-22T06:47:27.866Z,16.70
2017-09-22T06:49:55.363Z,16.70
2017-09-22T06:52:22.893Z,16.70
2017-09-22T06:54:50.443Z,16.70
2017-09-22T06:57:17.952Z,16.70
2017-09-22T06:59:45.475Z,16.80
2017-09-22T07:02:13.003Z,16.90
2017-09-22T07:04:41.330Z,17.00
2017-09-22T07:07:08.868Z,17.00
2017-09-22T07:09:36.456Z,17.10
2017-09-22T07:12:03.958Z,17.20
2017-09-22T07:14:32.271Z,17.50
2017-09-22T07:16:59.806Z,17.50
2017-09-22T07:19:28.093Z,18.50
2017-09-22T07:21:55.598Z,18.50
2017-09-22T07:24:23.169Z,18.70
2017-09-22T07:26:50.704Z,18.90
2017-09-22T07:29:18.273Z,19.00
2017-09-22T07:31:46.561Z,19.20
2017-09-22T07:34:14.120Z,19.10
2017-09-22T07:36:41.658Z,19.30
2017-09-22T07:39:09.242Z,19.50
2017-09-22T07:41:36.811Z,19.60
2017-09-22T07:44:04.401Z,19.80
2017-09-22T07:46:31.901Z,19.90
2017-09-22T07:48:59.444Z,20.10
2017-09-22T07:51:26.973Z,20.20
2017-09-22T07:53:55.322Z,20.50
2017-09-22T07:56:22.886Z,20.50
2017-09-22T07:58:51.262Z,20.70
2017-09-22T08:01:18.789Z,20.70
2017-09-22T08:03:46.330Z,20.90
2017-09-22T08:06:13.850Z,21.20
2017-09-22T08:08:42.196Z,21.40
2017-09-22T08:11:09.777Z,21.40
2017-09-22T08:13:37.325Z,21.40
2017-09-22T08:16:04.880Z,21.60
2017-09-22T08:18:32.416Z,21.50
2017-09-22T08:20:59.920Z,21.60
2017-09-22T08:23:27.502Z,21.30
2017-09-22T08:25:55.819Z,21.80
2017-09-22T08:28:23.346Z,21.80
2017-09-22T08:30:51.625Z,22.70
2017-09-22T08:33:19.981Z,23.00
2017-09-22T08:35:47.515Z,23.00
2017-09-22T08:38:15.027Z,23.20
2017-09-22T08:40:43.410Z,23.60
2017-09-22T08:43:11.718Z,23.80
2017-09-22T08:45:40.779Z,23.90
2017-09-22T08:48:09.122Z,24.00
2017-09-22T08:50:36.655Z,24.00
2017-09-22T08:53:04.219Z,24.10
2017-09-22T08:55:32.510Z,24.90
2017-09-22T08:58:00.023Z,24.80
2017-09-22T09:00:27.565Z,25.50
2017-09-22T09:02:55.126Z,25.90
2017-09-22T09:05:22.683Z,26.10
2017-09-22T09:07:50.961Z,27.20
2017-09-22T09:10:19.303Z,27.90
2017-09-22T09:12:46.805Z,27.80
2017-09-22T09:15:15.120Z,28.00
2017-09-22T09:17:42.620Z,28.00
2017-09-22T09:20:10.948Z,28.30
2017-09-22T09:22:38.517Z,28.20
2017-09-22T09:25:06.073Z,29.20
2017-09-22T09:27:33.639Z,29.80
2017-09-22T09:30:01.174Z,29.60
2017-09-22T09:32:28.710Z,29.50
2017-09-22T09:34:57.018Z,29.50
2017-09-22T09:37:24.542Z,29.50
2017-09-22T09:39:52.869Z,30.30
2017-09-22T09:42:20.390Z,30.30
2017-09-22T09:44:48.737Z,30.30
2017-09-22T09:47:16.274Z,30.30
2017-09-22T09:49:43.846Z,29.80
2017-09-22T09:52:11.347Z,29.60
2017-09-22T09:54:40.636Z,29.70
2017-09-22T09:57:08.929Z,30.30
2017-09-22T09:59:36.494Z,30.30
2017-09-22T10:02:04.045Z,31.40
2017-09-22T10:04:32.331Z,32.50
2017-09-22T10:06:59.862Z,32.50
2017-09-22T10:09:28.174Z,33.40
2017-09-22T10:11:55.691Z,33.40
2017-09-22T10:14:23.222Z,34.30
2017-09-22T10:16:50.758Z,34.70
2017-09-22T10:19:18.303Z,34.50
2017-09-22T10:21:46.617Z,33.50
2017-09-22T10:24:14.324Z,33.40
2017-09-22T10:26:42.626Z,33.80
2017-09-22T10:29:10.171Z,33.80
2017-09-22T10:31:38.486Z,33.00
2017-09-22T10:34:06.029Z,33.00
2017-09-22T10:36:33.559Z,33.20
2017-09-22T10:39:01.875Z,33.70
2017-09-22T10:41:29.406Z,33.70
2017-09-22T10:43:57.683Z,34.60
2017-09-22T10:46:25.966Z,34.70
2017-09-22T10:48:53.490Z,34.60
2017-09-22T10:51:21.046Z,35.00
2017-09-22T10:53:49.319Z,33.90
2017-09-22T10:56:16.854Z,33.90
2017-09-22T10:58:44.418Z,33.00
2017-09-22T11:01:11.933Z,31.50
2017-09-22T11:03:40.090Z,31.00
2017-09-22T11:06:07.641Z,30.40
2017-09-22T11:08:35.168Z,29.70
2017-09-22T11:11:02.726Z,29.10
2017-09-22T11:13:30.279Z,28.80
2017-09-22T11:15:57.828Z,28.80
2017-09-22T11:18:25.410Z,28.60
2017-09-22T11:20:52.944Z,28.40
2017-09-22T11:23:20.498Z,28.80
2017-09-22T11:25:48.038Z,29.40
2017-09-22T11:28:16.317Z,31.00
2017-09-22T11:30:44.632Z,32.00
2017-09-22T11:33:12.130Z,31.90
2017-09-22T11:35:40.089Z,32.30
2017-09-22T11:38:07.619Z,33.40
2017-09-22T11:40:35.171Z,33.70
2017-09-22T11:43:02.681Z,32.80
2017-09-22T11:45:30.238Z,32.20
2017-09-22T11:47:58.514Z,31.40
2017-09-22T11:50:26.051Z,31.40
2017-09-22T11:52:53.578Z,31.40
2017-09-22T11:55:21.138Z,31.10
2017-09-22T11:57:48.691Z,30.40
2017-09-22T12:00:16.971Z,30.70
2017-09-22T12:02:45.284Z,30.70
2017-09-22T12:05:12.793Z,30.60
2017-09-22T12:07:41.130Z,30.90
2017-09-22T12:10:08.634Z,30.90
2017-09-22T12:12:36.927Z,31.40
2017-09-22T12:15:04.436Z,31.40
2017-09-22T12:17:31.989Z,31.30
2017-09-22T12:19:59.512Z,30.80
2017-09-22T12:22:27.043Z,30.80
2017-09-22T12:24:55.323Z,30.70
2017-09-22T12:27:23.642Z,30.90
2017-09-22T12:29:51.186Z,30.90
2017-09-22T12:32:18.732Z,30.60
2017-09-22T12:34:47.002Z,30.20
2017-09-22T12:37:15.310Z,30.30
2017-09-22T12:39:42.871Z,30.30
2017-09-22T12:42:10.422Z,30.10
2017-09-22T12:44:37.991Z,30.40
2017-09-22T12:47:05.502Z,30.60
2017-09-22T12:49:33.012Z,30.90
2017-09-22T12:52:00.585Z,30.30
2017-09-22T12:54:28.887Z,30.40
2017-09-22T12:56:56.415Z,30.40
2017-09-22T12:59:23.942Z,30.10
2017-09-22T13:01:52.329Z,28.30
2017-09-22T13:04:20.651Z,29.10
2017-09-22T13:06:48.290Z,29.10
2017-09-22T13:09:15.808Z,29.90
2017-09-22T13:11:43.354Z,30.60
2017-09-22T13:14:10.863Z,31.00
2017-09-22T13:16:38.422Z,31.20
2017-09-22T13:19:05.932Z,31.30
2017-09-22T13:21:33.505Z,31.30
2017-09-22T13:24:01.823Z,30.80
2017-09-22T13:26:29.345Z,30.80
2017-09-22T13:28:57.654Z,30.10
2017-09-22T13:31:25.193Z,30.00
2017-09-22T13:33:52.705Z,29.60
2017-09-22T13:36:20.238Z,28.90
2017-09-22T13:38:47.766Z,28.80
2017-09-22T13:41:16.090Z,28.60
2017-09-22T13:43:43.610Z,28.50
2017-09-22T13:46:11.937Z,28.30
2017-09-22T13:48:40.217Z,28.30
2017-09-22T13:51:07.787Z,28.30
2017-09-22T13:53:35.350Z,28.40
2017-09-22T13:56:02.910Z,28.10
2017-09-22T13:58:30.450Z,27.90
2017-09-22T14:00:57.987Z,28.00
2017-09-22T14:03:25.526Z,27.90
2017-09-22T14:05:53.090Z,27.70
2017-09-22T14:08:20.670Z,27.80
2017-09-22T14:10:48.219Z,27.70
2017-09-22T14:13:15.748Z,27.80
2017-09-22T14:15:44.033Z,27.60
2017-09-22T14:18:12.329Z,27.20
2017-09-22T14:20:40.274Z,27.20
2017-09-22T14:23:09.299Z,27.00
2017-09-22T14:25:36.797Z,26.90
2017-09-22T14:28:04.357Z,26.70
2017-09-22T14:30:31.995Z,26.60
2017-09-22T14:32:59.522Z,26.50
2017-09-22T14:35:27.791Z,26.20
2017-09-22T14:37:56.113Z,26.10
2017-09-22T14:40:23.633Z,26.00
2017-09-22T14:42:51.963Z,26.60
2017-09-22T14:45:19.491Z,26.50
2017-09-22T14:47:47.030Z,26.80
2017-09-22T14:50:15.305Z,27.10
2017-09-22T14:52:43.639Z,27.00
2017-09-22T14:55:11.148Z,27.00
2017-09-22T14:57:40.407Z,26.60
2017-09-22T15:00:07.918Z,26.60
2017-09-22T15:02:36.202Z,26.20
2017-09-22T15:05:03.693Z,26.10
2017-09-22T15:07:31.247Z,26.10
2017-09-22T15:09:59.594Z,26.10
2017-09-22T15:12:27.149Z,26.00
2017-09-22T15:14:54.681Z,25.90
2017-09-22T15:17:22.271Z,25.70
2017-09-22T15:19:49.834Z,25.80
2017-09-22T15:22:17.400Z,25.80
2017-09-22T15:24:44.962Z,25.80
2017-09-22T15:27:12.515Z,25.80
2017-09-22T15:29:40.302Z,25.90
2017-09-22T15:32:07.826Z,25.80
2017-09-22T15:34:35.391Z,25.80
2017-09-22T15:37:02.957Z,25.70
2017-09-22T15:39:30.532Z,25.50
2017-09-22T15:41:58.033Z,25.50
2017-09-22T15:44:25.602Z,25.30
2017-09-22T15:46:53.123Z,24.80
2017-09-22T15:49:20.649Z,25.10
2017-09-22T15:51:48.950Z,25.20
2017-09-22T15:54:18.134Z,25.20
2017-09-22T15:56:45.657Z,25.50
2017-09-22T15:59:13.171Z,25.60
2017-09-22T16:01:40.738Z,25.70
2017-09-22T16:04:09.074Z,26.00
2017-09-22T16:06:36.634Z,25.90
2017-09-22T16:09:04.954Z,25.80
2017-09-22T16:11:32.503Z,25.70
2017-09-22T16:14:00.067Z,25.80
2017-09-22T16:16:27.716Z,25.80
2017-09-22T16:18:55.271Z,25.90
2017-09-22T16:21:23.384Z,25.90
2017-09-22T16:23:50.977Z,25.50
2017-09-22T16:26:19.254Z,25.50
2017-09-22T16:28:47.551Z,25.40
2017-09-22T16:31:15.117Z,25.40
2017-09-22T16:33:42.637Z,25.30
2017-09-22T16:36:10.172Z,25.30
2017-09-22T16:38:37.739Z,25.30
2017-09-22T16:41:05.282Z,25.20
2017-09-22T16:43:32.850Z,25.20
2017-09-22T16:46:00.370Z,25.10
2017-09-22T16:48:27.942Z,25.00
2017-09-22T16:50:55.455Z,25.00
2017-09-22T16:53:23.010Z,25.00
2017-09-22T16:55:50.562Z,24.90
2017-09-22T16:58:18.111Z,24.90
2017-09-22T17:00:45.646Z,24.50
2017-09-22T17:03:13.188Z,24.50
2017-09-22T17:05:40.695Z,24.50
2017-09-22T17:08:08.266Z,24.40
2017-09-22T17:10:35.786Z,24.50
2017-09-22T17:13:03.343Z,24.40
2017-09-22T17:15:30.878Z,24.30
2017-09-22T17:17:59.219Z,24.30
2017-09-22T17:20:27.574Z,24.20
2017-09-22T17:22:55.126Z,24.20
2017-09-22T17:25:22.687Z,24.00
2017-09-22T17:27:50.241Z,24.00
2017-09-22T17:30:17.805Z,24.10
2017-09-22T17:32:45.331Z,24.20
2017-09-22T17:35:12.884Z,24.20
2017-09-22T17:37:41.215Z,24.10
2017-09-22T17:40:08.738Z,24.10
2017-09-22T17:42:37.016Z,23.70
2017-09-22T17:45:11.193Z,23.70
2017-09-22T17:47:38.738Z,23.60
2017-09-22T17:50:06.740Z,23.60
2017-09-22T17:52:35.039Z,23.60
2017-09-22T17:55:02.603Z,23.60
2017-09-22T17:57:30.099Z,23.70
2017-09-22T17:59:57.629Z,23.80
2017-09-22T18:02:25.196Z,23.80
2017-09-22T18:04:52.745Z,23.80
2017-09-22T18:07:20.300Z,23.70
2017-09-22T18:09:47.869Z,23.60
2017-09-22T18:12:15.402Z,23.60
2017-09-22T18:14:43.715Z,23.50
2017-09-22T18:17:11.213Z,23.50
2017-09-22T18:19:38.764Z,23.50
2017-09-22T18:22:06.298Z,23.40
2017-09-22T18:24:33.833Z,23.00
2017-09-22T18:27:01.372Z,22.70
2017-09-22T18:29:29.702Z,22.30
2017-09-22T18:31:57.237Z,22.30
2017-09-22T18:34:24.789Z,22.20
2017-09-22T18:36:53.071Z,22.00
2017-09-22T18:39:20.657Z,21.90
2017-09-22T18:41:48.147Z,21.90
2017-09-22T18:44:15.718Z,21.70
2017-09-22T18:46:43.239Z,21.60
2017-09-22T18:49:10.798Z,21.50
2017-09-22T18:51:38.362Z,21.40
2017-09-22T18:54:06.031Z,21.40
2017-09-22T18:56:33.558Z,21.60
2017-09-22T18:59:01.138Z,21.50
2017-09-22T19:01:28.649Z,21.40
2017-09-22T19:03:56.946Z,21.30
2017-09-22T19:06:24.486Z,21.20
2017-09-22T19:08:52.775Z,21.20
2017-09-22T19:11:20.302Z,21.10
2017-09-22T19:13:47.824Z,21.30
2017-09-22T19:16:15.358Z,21.10
2017-09-22T19:18:43.641Z,21.40
2017-09-22T19:21:11.220Z,21.40
2017-09-22T19:23:38.751Z,21.50
2017-09-22T19:26:07.054Z,21.60
2017-09-22T19:28:34.562Z,21.60
2017-09-22T19:31:02.113Z,21.60
2017-09-22T19:33:29.618Z,21.50
2017-09-22T19:35:57.190Z,21.40
2017-09-22T19:38:24.689Z,21.10
2017-09-22T19:40:52.243Z,21.20
2017-09-22T19:43:19.759Z,21.20
2017-09-22T19:45:47.316Z,21.00
2017-09-22T19:48:14.846Z,21.10
2017-09-22T19:50:42.374Z,21.20
2017-09-22T19:53:09.910Z,21.20
2017-09-22T19:55:37.453Z,21.30
2017-09-22T19:58:04.952Z,21.40
2017-09-22T20:00:32.499Z,21.50
2017-09-22T20:03:00.042Z,21.60
2017-09-22T20:05:27.618Z,21.50
2017-09-22T20:07:55.132Z,21.50
2017-09-22T20:10:23.451Z,21.50
2017-09-22T20:12:50.966Z,21.50
2017-09-22T20:15:19.384Z,21.50
2017-09-22T20:17:46.882Z,21.50
2017-09-22T20:20:14.402Z,21.30
2017-09-22T20:22:41.995Z,21.40
2017-09-22T20:25:11.034Z,21.50
2017-09-22T20:27:39.353Z,21.60
2017-09-22T20:30:06.872Z,21.60
2017-09-22T20:32:35.195Z,21.60
2017-09-22T20:35:02.713Z,21.60
2017-09-22T20:37:31.062Z,21.60
2017-09-22T20:39:58.592Z,21.60
2017-09-22T20:42:26.162Z,21.50
2017-09-22T20:44:53.675Z,21.60
2017-09-22T20:47:21.197Z,21.70
2017-09-22T20:49:48.742Z,21.70
2017-09-22T20:52:16.374Z,21.70
2017-09-22T20:54:43.903Z,21.50
2017-09-22T20:57:12.231Z,21.60
2017-09-22T20:59:41.791Z,21.60
2017-09-22T21:02:10.217Z,21.40
2017-09-22T21:04:37.731Z,21.40
2017-09-22T21:07:06.038Z,21.50
2017-09-22T21:09:33.571Z,21.40
2017-09-22T21:12:01.131Z,21.50
2017-09-22T21:14:28.659Z,21.50
2017-09-22T21:16:56.185Z,21.30
2017-09-22T21:19:24.013Z,21.30
2017-09-22T21:21:51.746Z,21.30
2017-09-22T21:24:19.262Z,21.20
2017-09-22T21:26:49.008Z,21.30
2017-09-22T21:29:16.933Z,21.40
2017-09-22T21:31:44.599Z,21.40
2017-09-22T21:34:12.143Z,21.40
2017-09-22T21:36:40.628Z,21.10
2017-09-22T21:39:08.195Z,21.20
2017-09-22T21:41:35.749Z,21.20
2017-09-22T21:44:03.252Z,21.10
2017-09-22T21:46:30.834Z,21.20
2017-09-22T21:48:58.410Z,21.20
2017-09-22T21:51:26.723Z,20.90
2017-09-22T21:53:54.268Z,20.80
2017-09-22T21:56:21.840Z,20.90
2017-09-22T21:58:49.375Z,21.00
2017-09-22T22:01:17.677Z,21.20
2017-09-22T22:03:51.004Z,21.20
2017-09-22T22:06:24.138Z,20.90
2017-09-22T22:08:58.246Z,20.80
2017-09-22T22:11:26.560Z,20.90
2017-09-22T22:13:54.089Z,20.90
2017-09-22T22:16:22.415Z,21.10
2017-09-22T22:18:49.935Z,21.10
2017-09-22T22:21:18.249Z,21.20
2017-09-22T22:23:45.803Z,21.20
2017-09-22T22:26:13.338Z,21.30
2017-09-22T22:28:41.641Z,21.30
2017-09-22T22:31:09.146Z,21.30
2017-09-22T22:33:37.450Z,21.40
2017-09-22T22:36:04.971Z,21.40
2017-09-22T22:38:32.515Z,21.30
2017-09-22T22:41:00.031Z,21.20
2017-09-22T22:43:27.588Z,21.00
2017-09-22T22:45:55.151Z,21.10
2017-09-22T22:48:22.681Z,21.10
2017-09-22T22:50:50.993Z,21.10
2017-09-22T22:53:18.530Z,21.10
2017-09-22T22:55:46.802Z,21.10
2017-09-22T22:58:15.114Z,21.20
2017-09-22T23:00:43.569Z,21.20
2017-09-22T23:03:11.880Z,21.10
2017-09-22T23:05:39.430Z,21.10
2017-09-22T23:08:06.971Z,20.90
2017-09-22T23:10:34.506Z,20.80
2017-09-22T23:13:02.044Z,20.90
2017-09-22T23:15:29.554Z,21.00
2017-09-22T23:17:57.120Z,20.90
2017-09-22T23:20:24.642Z,21.00
2017-09-22T23:22:52.201Z,21.10
2017-09-22T23:25:19.729Z,21.00
2017-09-22T23:27:47.259Z,21.10
2017-09-22T23:30:14.757Z,21.10
2017-09-22T23:32:42.319Z,21.10
2017-09-22T23:35:09.839Z,21.10
2017-09-22T23:37:37.382Z,21.20
2017-09-22T23:40:05.655Z,21.20
2017-09-22T23:42:33.967Z,21.20
2017-09-22T23:45:01.515Z,21.10
2017-09-22T23:47:29.053Z,21.10
2017-09-22T23:49:57.333Z,21.10
2017-09-22T23:52:25.610Z,21.20
2017-09-22T23:54:53.948Z,21.20
2017-09-22T23:57:21.475Z,21.20
2017-09-22T23:59:49.008Z,21.20
